Time;durP1;ratioP1;P1;durP2;ratioP2;P2;SDS_P1;SDS_P2;PMS_P1;PMS_P2;Temp;Humidity;BMP_temperature;BMP_pressure;BME280_temperature;BME280_humidity;BME280_pressure;Samples;Min_cycle;Max_cycle;Signal;HPM_P1;HPM_P2
2022/01/17 00:00:15;;;;;;;13.90;2.67;;;6.60;99.90;;;;;;5065437;28;20109;-79
2022/01/17 00:02:42;;;;;;;10.23;2.33;;;5.40;99.90;;;;;;5064063;28;20497;-79
2022/01/17 00:05:09;;;;;;;10.95;2.00;;;6.70;99.90;;;;;;5065007;28;20051;-81
2022/01/17 00:07:36;;;;;;;15.48;2.40;;;5.40;99.90;;;;;;5063127;28;20052;-82
2022/01/17 00:10:04;;;;;;;12.70;2.75;;;5.40;99.90;;;;;;5081184;28;20496;-82
2022/01/17 00:12:33;;;;;;;10.05;2.63;;;5.40;99.90;;;;;;5079427;28;20416;-82
2022/01/17 00:14:59;;;;;;;12.80;2.63;;;5.40;99.90;;;;;;5080011;28;20044;-82
2022/01/17 00:17:33;;;;;;;11.73;2.35;;;5.40;99.90;;;;;;5046942;28;20106;-83
2022/01/17 00:20:08;;;;;;;12.82;2.60;;;6.00;99.90;;;;;;5064394;28;20044;-81
2022/01/17 00:22:34;;;;;;;19.42;2.83;;;5.30;99.90;;;;;;5064096;28;20054;-81
2022/01/17 00:25:00;;;;;;;14.55;2.75;;;5.80;99.90;;;;;;5080481;28;20044;-80
2022/01/17 00:27:26;;;;;;;15.65;2.55;;;5.30;99.90;;;;;;5048053;28;20397;-80
2022/01/17 00:29:51;;;;;;;9.65;2.15;;;5.30;99.90;;;;;;5047270;28;20052;-79
2022/01/17 00:32:18;;;;;;;14.48;2.80;;;5.40;99.90;;;;;;5063785;28;20099;-80
2022/01/17 00:34:46;;;;;;;12.60;2.30;;;5.30;99.90;;;;;;5046921;28;20510;-79
2022/01/17 00:37:12;;;;;;;16.83;2.65;;;5.30;99.90;;;;;;5064133;28;20143;-80
2022/01/17 00:39:38;;;;;;;11.50;2.55;;;5.30;99.90;;;;;;5063021;28;20047;-80
2022/01/17 00:42:04;;;;;;;15.15;2.63;;;5.40;99.90;;;;;;5079306;28;20050;-79
2022/01/17 00:44:29;;;;;;;14.52;2.53;;;5.40;99.90;;;;;;5046953;28;20047;-80
2022/01/17 00:46:55;;;;;;;13.73;2.30;;;6.60;99.90;;;;;;5046511;28;20481;-80
2022/01/17 00:49:21;;;;;;;16.55;2.58;;;5.40;99.90;;;;;;5064003;28;20044;-79
2022/01/17 00:51:48;;;;;;;13.88;2.80;;;5.50;99.90;;;;;;5063596;28;20044;-80
2022/01/17 00:54:14;;;;;;;12.75;2.70;;;6.10;99.90;;;;;;5080309;28;20040;-79
2022/01/17 00:56:39;;;;;;;20.73;3.33;;;5.50;99.90;;;;;;5045965;28;20043;-79
2022/01/17 00:59:05;;;;;;;12.95;2.78;;;5.50;99.90;;;;;;5063153;28;20048;-80
2022/01/17 01:01:31;;;;;;;12.73;2.50;;;5.60;99.90;;;;;;5063588;28;20059;-80
2022/01/17 01:03:58;;;;;;;14.20;2.65;;;5.60;99.90;;;;;;5078446;28;20044;-79
2022/01/17 01:06:23;;;;;;;12.45;2.10;;;5.60;99.90;;;;;;5061744;28;20152;-80
2022/01/17 01:08:49;;;;;;;14.75;2.75;;;6.70;99.90;;;;;;5063209;28;20509;-80
2022/01/17 01:11:15;;;;;;;11.93;2.45;;;5.50;99.90;;;;;;5062921;28;20067;-80
2022/01/17 01:13:40;;;;;;;14.65;2.78;;;5.50;99.90;;;;;;5062945;28;20143;-80
2022/01/17 01:16:22;;;;;;;14.90;2.80;;;5.50;99.90;;;;;;5062283;28;20127;-80
2022/01/17 01:29:30;;;;;;;16.70;2.53;;;6.20;99.90;;;;;;5079846;28;20052;-81
2022/01/17 01:32:04;;;;;;;14.23;2.60;;;5.60;99.90;;;;;;5079318;28;20353;-80
2022/01/17 01:34:37;;;;;;;19.65;2.50;;;5.30;99.90;;;;;;5047357;28;20044;-80
2022/01/17 01:37:04;;;;;;;16.67;2.55;;;6.40;99.90;;;;;;5063624;28;20128;-80
2022/01/17 01:39:31;;;;;;;15.88;2.60;;;5.80;99.90;;;;;;5063200;28;20059;-80
2022/01/17 01:41:58;;;;;;;12.30;2.63;;;5.30;99.90;;;;;;5079454;28;20469;-80
2022/01/17 01:44:25;;;;;;;12.50;2.38;;;5.40;99.90;;;;;;5047102;28;20071;-79
2022/01/17 01:46:53;;;;;;;14.77;2.78;;;5.30;99.90;;;;;;5063315;28;20050;-80
2022/01/17 01:49:19;;;;;;;12.70;3.20;;;5.60;99.90;;;;;;5062163;28;20402;-79
2022/01/17 01:51:46;;;;;;;15.25;2.90;;;5.30;99.90;;;;;;5061218;28;20083;-79
2022/01/17 01:54:13;;;;;;;12.55;2.55;;;5.30;99.90;;;;;;5061827;28;20056;-80
2022/01/17 01:56:45;;;;;;;18.80;2.78;;;5.30;99.90;;;;;;5045465;28;20044;-80
2022/01/17 01:59:12;;;;;;;16.02;2.47;;;6.10;99.90;;;;;;5079258;28;20476;-80
2022/01/17 02:01:38;;;;;;;14.70;2.90;;;5.30;99.90;;;;;;5061328;28;20471;-80
2022/01/17 02:04:05;;;;;;;14.63;2.85;;;5.30;99.90;;;;;;5078429;28;20553;-79
2022/01/17 02:06:34;;;;;;;16.90;2.72;;;5.20;99.90;;;;;;5079171;28;20126;-79
2022/01/17 02:09:05;;;;;;;16.20;2.80;;;5.30;99.90;;;;;;5062757;28;20082;-79
2022/01/17 02:11:32;;;;;;;15.68;2.53;;;6.40;99.90;;;;;;5046597;28;20044;-79
2022/01/17 02:13:57;;;;;;;16.27;3.15;;;5.30;99.90;;;;;;5076551;28;20101;-80
2022/01/17 02:16:23;;;;;;;17.98;3.13;;;5.30;99.90;;;;;;5046040;28;20061;-80
2022/01/17 02:18:50;;;;;;;13.95;2.38;;;5.30;99.90;;;;;;5044903;28;20051;-79
2022/01/17 02:23:53;;;;;;;15.27;2.70;;;5.70;99.90;;;;;;5060634;28;20059;-80
2022/01/17 02:26:21;;;;;;;12.18;1.88;;;5.30;99.90;;;;;;5062169;28;20551;-79
2022/01/17 02:28:48;;;;;;;14.77;2.95;;;5.30;99.90;;;;;;5061709;28;20059;-79
2022/01/17 02:31:15;;;;;;;10.52;2.58;;;5.30;99.90;;;;;;5050426;28;20498;-80
2022/01/17 02:33:40;;;;;;;9.82;2.25;;;5.30;99.90;;;;;;5049061;28;20099;-80
2022/01/17 02:36:07;;;;;;;15.93;2.97;;;5.40;99.90;;;;;;5034141;28;20090;-80
2022/01/17 02:38:33;;;;;;;12.57;3.03;;;5.30;99.90;;;;;;5049903;28;20450;-80
2022/01/17 02:40:59;;;;;;;11.98;2.08;;;5.30;99.90;;;;;;5050148;28;20095;-79
2022/01/17 02:43:26;;;;;;;13.50;2.72;;;6.00;99.90;;;;;;5075483;28;20514;-79
2022/01/17 02:48:30;;;;;;;13.50;2.53;;;5.70;99.90;;;;;;5066791;28;20048;-79
2022/01/17 02:50:58;;;;;;;15.77;2.58;;;5.40;99.90;;;;;;5066172;28;20040;-79
2022/01/17 02:53:24;;;;;;;18.52;2.75;;;5.50;99.90;;;;;;5066443;28;20052;-79
2022/01/17 02:55:55;;;;;;;13.75;2.47;;;5.50;99.90;;;;;;5066986;28;20402;-79
2022/01/17 02:58:24;;;;;;;9.27;2.55;;;5.50;99.90;;;;;;5066175;28;20138;-79
2022/01/17 03:00:52;;;;;;;12.02;2.35;;;6.10;99.90;;;;;;5066312;28;20078;-79
2022/01/17 03:03:20;;;;;;;8.20;2.55;;;5.60;99.90;;;;;;5049806;28;20113;-79
2022/01/17 03:05:48;;;;;;;9.60;2.15;;;5.70;99.90;;;;;;5049958;28;20049;-79
2022/01/17 03:08:15;;;;;;;12.75;2.40;;;6.10;99.90;;;;;;5049673;28;20516;-80
2022/01/17 03:10:43;;;;;;;17.30;3.45;;;6.90;99.90;;;;;;5050058;28;20591;-81
2022/01/17 03:13:15;;;;;;;10.88;2.47;;;5.80;99.90;;;;;;5042530;28;20410;-80
2022/01/17 03:15:42;;;;;;;10.40;2.75;;;5.70;99.90;;;;;;5065719;28;20056;-81
2022/01/17 03:18:09;;;;;;;11.57;2.60;;;5.70;99.90;;;;;;5042087;28;20053;-80
2022/01/17 03:20:37;;;;;;;9.80;2.03;;;5.80;99.90;;;;;;5049164;28;20075;-80
2022/01/17 03:23:03;;;;;;;12.35;2.92;;;5.80;99.90;;;;;;5049719;28;20059;-80
2022/01/17 03:25:30;;;;;;;10.93;2.28;;;5.80;99.90;;;;;;5026092;28;20056;-79
2022/01/17 03:27:56;;;;;;;12.00;2.70;;;5.80;99.90;;;;;;5034814;28;20048;-79
2022/01/17 03:30:24;;;;;;;10.40;2.53;;;5.90;99.90;;;;;;5039080;28;20048;-80
2022/01/17 03:32:51;;;;;;;12.85;2.47;;;5.90;99.90;;;;;;5065251;28;20059;-80
2022/01/17 03:35:17;;;;;;;13.25;2.42;;;5.70;99.90;;;;;;5048847;28;20545;-79
2022/01/17 03:37:44;;;;;;;12.45;2.40;;;6.30;99.90;;;;;;5062884;28;20082;-81
2022/01/17 03:40:11;;;;;;;17.80;2.53;;;6.30;99.90;;;;;;5048006;28;20048;-79
2022/01/17 03:42:37;;;;;;;17.17;3.22;;;5.70;99.90;;;;;;5081711;28;20051;-80
2022/01/17 03:45:07;;;;;;;10.90;2.33;;;5.70;99.90;;;;;;5065897;28;20262;-80
2022/01/17 03:47:34;;;;;;;14.60;3.20;;;5.70;99.90;;;;;;5082549;28;20051;-80
2022/01/17 03:50:00;;;;;;;12.73;2.50;;;5.70;99.90;;;;;;5063842;28;20044;-79
2022/01/17 03:52:26;;;;;;;21.35;3.13;;;5.70;99.90;;;;;;5031919;28;20390;-80
2022/01/17 03:54:52;;;;;;;14.52;2.95;;;5.70;99.90;;;;;;5049292;28;20058;-79
2022/01/17 03:57:17;;;;;;;17.88;2.83;;;5.70;99.90;;;;;;5064139;28;20042;-80
2022/01/17 03:59:43;;;;;;;16.52;2.85;;;5.80;99.90;;;;;;5064552;28;20098;-80
2022/01/17 04:02:10;;;;;;;10.65;3.38;;;5.70;99.90;;;;;;5047768;28;20059;-80
2022/01/17 04:04:35;;;;;;;14.65;2.50;;;5.70;99.90;;;;;;5065392;28;20075;-80
2022/01/17 04:07:01;;;;;;;19.17;3.53;;;5.70;99.90;;;;;;5063874;28;20090;-79
2022/01/17 04:09:27;;;;;;;15.98;3.00;;;5.70;99.90;;;;;;5063598;28;20059;-80
2022/01/17 04:11:52;;;;;;;17.70;2.75;;;6.70;99.90;;;;;;5030879;28;20058;-80
2022/01/17 04:14:18;;;;;;;12.18;3.28;;;5.70;99.90;;;;;;5048158;28;20382;-80
2022/01/17 04:16:44;;;;;;;12.20;3.10;;;5.70;99.90;;;;;;5048195;28;20054;-81
2022/01/17 04:19:11;;;;;;;11.13;2.88;;;5.70;99.90;;;;;;5047550;28;20076;-80
2022/01/17 04:21:37;;;;;;;10.88;2.75;;;5.70;99.90;;;;;;5047885;28;20044;-80
2022/01/17 04:24:03;;;;;;;14.30;3.20;;;5.70;99.90;;;;;;5062990;28;20132;-79
2022/01/17 04:26:29;;;;;;;11.27;2.60;;;5.70;99.90;;;;;;5048783;28;20048;-80
2022/01/17 04:28:54;;;;;;;17.83;3.90;;;5.70;99.90;;;;;;5064022;28;20496;-80
2022/01/17 04:31:20;;;;;;;18.67;3.63;;;5.80;99.90;;;;;;5063278;28;20052;-79
2022/01/17 04:33:46;;;;;;;25.02;4.18;;;5.80;99.90;;;;;;5062939;28;20056;-80
2022/01/17 04:36:12;;;;;;;16.23;3.38;;;5.80;99.90;;;;;;5065104;28;20048;-80
2022/01/17 04:38:38;;;;;;;20.92;4.70;;;5.90;99.90;;;;;;5071135;28;20094;-80
2022/01/17 04:41:12;;;;;;;16.92;3.47;;;5.90;99.90;;;;;;5046661;28;20052;-79
2022/01/17 04:46:05;;;;;;;12.25;3.20;;;5.90;99.90;;;;;;5064023;28;20040;-80
2022/01/17 04:48:31;;;;;;;16.20;3.58;;;6.20;99.90;;;;;;5080249;28;20051;-80
2022/01/17 04:51:01;;;;;;;22.58;4.03;;;6.50;99.90;;;;;;5063665;28;20044;-80
2022/01/17 04:53:28;;;;;;;13.05;4.03;;;5.90;99.90;;;;;;5080306;28;20078;-80
2022/01/17 04:55:54;;;;;;;16.48;3.47;;;5.90;99.90;;;;;;5061666;28;20044;-80
2022/01/17 04:58:21;;;;;;;19.10;3.90;;;6.20;99.90;;;;;;5062904;28;20051;-80
2022/01/17 05:00:47;;;;;;;18.13;3.60;;;6.00;99.90;;;;;;5046697;28;20055;-80
2022/01/17 05:03:22;;;;;;;14.93;3.33;;;6.00;99.90;;;;;;5063233;28;20047;-79
2022/01/17 05:05:48;;;;;;;18.63;4.13;;;6.00;99.90;;;;;;5063119;28;20047;-80
2022/01/17 05:08:14;;;;;;;21.38;3.95;;;6.00;99.90;;;;;;5079230;28;20120;-79
2022/01/17 05:10:43;;;;;;;14.55;3.40;;;6.00;99.90;;;;;;5062980;28;20044;-80
2022/01/17 05:13:11;;;;;;;13.10;3.58;;;5.90;99.90;;;;;;5062150;28;20056;-80
2022/01/17 05:15:44;;;;;;;15.50;4.13;;;7.20;99.90;;;;;;5062707;28;20054;-80
2022/01/17 05:20:39;;;;;;;15.48;3.95;;;5.90;99.90;;;;;;5063293;28;20047;-80
2022/01/17 05:23:05;;;;;;;18.50;3.97;;;5.90;99.90;;;;;;5078663;28;20044;-80
2022/01/17 05:25:30;;;;;;;16.98;3.92;;;5.90;99.90;;;;;;5063101;28;20047;-80
2022/01/17 05:27:56;;;;;;;17.30;4.30;;;5.90;99.90;;;;;;5045054;28;20043;-80
2022/01/17 05:30:23;;;;;;;20.20;4.20;;;5.90;99.90;;;;;;5038398;28;20040;-80
2022/01/17 05:32:50;;;;;;;17.10;4.50;;;5.90;99.90;;;;;;5047630;28;20502;-80
2022/01/17 05:35:17;;;;;;;28.02;5.05;;;6.00;99.90;;;;;;5063632;28;20056;-80
2022/01/17 05:37:44;;;;;;;20.42;4.32;;;6.00;99.90;;;;;;5079171;28;20154;-80
2022/01/17 05:40:11;;;;;;;18.77;4.30;;;6.00;99.90;;;;;;5062608;28;20132;-80
2022/01/17 05:42:37;;;;;;;15.68;3.47;;;6.00;99.90;;;;;;5077636;28;20086;-80
2022/01/17 05:45:04;;;;;;;20.83;3.70;;;6.00;99.90;;;;;;5045321;28;20397;-80
2022/01/17 05:47:31;;;;;;;18.33;3.65;;;6.00;99.90;;;;;;5045354;28;20051;-79
2022/01/17 05:49:59;;;;;;;15.98;3.75;;;6.00;99.90;;;;;;5061835;28;20056;-80
2022/01/17 05:52:24;;;;;;;21.50;4.78;;;6.00;99.90;;;;;;5078771;28;20819;-80
2022/01/17 05:54:52;;;;;;;15.60;4.07;;;6.50;99.90;;;;;;5045773;28;20052;-79
2022/01/17 05:57:18;;;;;;;22.52;4.47;;;6.00;99.90;;;;;;5061810;28;20051;-79
2022/01/17 05:59:44;;;;;;;26.98;4.40;;;7.30;99.90;;;;;;5062353;28;20568;-79
2022/01/17 06:02:09;;;;;;;22.75;4.25;;;6.00;99.90;;;;;;5079089;28;20047;-79
2022/01/17 06:04:36;;;;;;;16.70;3.70;;;6.10;99.90;;;;;;5045268;28;20047;-79
2022/01/17 06:07:03;;;;;;;18.52;3.88;;;6.10;99.90;;;;;;5060914;28;20400;-79
2022/01/17 06:09:30;;;;;;;20.90;3.88;;;6.10;99.90;;;;;;5044328;28;20114;-80
2022/01/17 06:11:56;;;;;;;19.13;4.78;;;6.40;99.90;;;;;;5079343;28;20070;-80
2022/01/17 06:14:22;;;;;;;19.60;3.58;;;6.10;99.90;;;;;;5062130;28;20047;-80
2022/01/17 06:16:49;;;;;;;20.50;4.22;;;6.20;99.90;;;;;;5079306;28;20886;-80
2022/01/17 06:19:16;;;;;;;19.45;4.15;;;6.10;99.90;;;;;;5077869;28;20055;-80
2022/01/17 06:21:41;;;;;;;25.17;4.70;;;6.10;99.90;;;;;;5062186;28;20519;-79
2022/01/17 06:24:09;;;;;;;18.65;3.97;;;6.10;99.90;;;;;;5059939;28;20132;-79
2022/01/17 06:26:40;;;;;;;24.58;4.68;;;6.10;99.90;;;;;;5079069;28;20590;-80
2022/01/17 06:29:07;;;;;;;21.63;3.65;;;6.20;99.90;;;;;;5078911;28;20071;-80
2022/01/17 06:31:34;;;;;;;23.70;4.72;;;6.20;99.90;;;;;;5060244;28;20066;-79
2022/01/17 06:34:00;;;;;;;16.95;3.63;;;6.20;99.90;;;;;;5061189;28;20405;-81
2022/01/17 06:36:26;;;;;;;22.50;4.25;;;6.40;99.90;;;;;;5062321;28;20071;-80
2022/01/17 06:38:54;;;;;;;29.38;4.35;;;6.20;99.90;;;;;;5076897;28;20098;-80
2022/01/17 06:41:20;;;;;;;24.17;4.50;;;6.30;99.90;;;;;;5045554;28;20445;-80
2022/01/17 06:43:47;;;;;;;20.55;3.92;;;6.30;99.90;;;;;;5078180;28;20040;-80
2022/01/17 06:46:14;;;;;;;23.98;4.85;;;6.30;99.90;;;;;;5060833;28;20048;-80
2022/01/17 06:48:41;;;;;;;30.88;4.85;;;6.30;99.90;;;;;;5059558;28;20047;-82
2022/01/17 06:51:07;;;;;;;27.83;4.35;;;6.90;99.90;;;;;;5061169;28;20063;-81
2022/01/17 06:53:33;;;;;;;17.70;4.30;;;6.30;99.90;;;;;;5062525;28;20048;-81
2022/01/17 06:56:00;;;;;;;22.60;4.55;;;6.30;99.90;;;;;;5061852;28;20055;-81
2022/01/17 06:58:27;;;;;;;19.65;4.60;;;6.30;99.90;;;;;;5060302;28;20112;-80
2022/01/17 07:00:53;;;;;;;18.40;4.63;;;6.70;99.90;;;;;;5062189;28;20056;-81
2022/01/17 07:03:18;;;;;;;25.63;4.50;;;6.40;99.90;;;;;;5059876;28;20492;-81
2022/01/17 07:05:44;;;;;;;21.98;4.45;;;6.40;99.90;;;;;;5061373;28;20071;-81
2022/01/17 07:08:10;;;;;;;20.35;4.22;;;6.40;99.90;;;;;;5059623;28;20401;-81
2022/01/17 07:10:36;;;;;;;23.23;4.25;;;6.40;99.90;;;;;;5077065;28;20048;-81
2022/01/17 07:13:01;;;;;;;29.50;4.15;;;6.40;99.90;;;;;;5044395;28;20055;-81
2022/01/17 07:15:27;;;;;;;27.20;4.38;;;6.40;99.90;;;;;;5027535;28;20611;-80
2022/01/17 07:17:53;;;;;;;24.63;4.68;;;6.40;99.90;;;;;;5077315;28;20053;-81
2022/01/17 07:20:18;;;;;;;30.42;4.60;;;6.50;99.90;;;;;;5027208;28;20048;-81
2022/01/17 07:22:44;;;;;;;23.92;4.45;;;6.50;99.90;;;;;;5036331;28;20492;-81
2022/01/17 07:25:10;;;;;;;24.60;4.20;;;6.70;99.90;;;;;;5059936;28;20055;-80
2022/01/17 07:27:36;;;;;;;25.05;4.32;;;6.50;99.90;;;;;;5043891;28;20040;-82
2022/01/17 07:30:05;;;;;;;24.38;4.60;;;6.50;99.90;;;;;;5061036;28;20050;-81
2022/01/17 07:32:31;;;;;;;20.08;4.22;;;5.50;99.90;;;;;;5060104;28;20060;-81
2022/01/17 07:34:57;;;;;;;26.90;4.70;;;6.50;99.90;;;;;;5036493;28;20048;-81
2022/01/17 07:37:23;;;;;;;23.95;4.47;;;6.90;99.90;;;;;;5060409;28;20051;-81
2022/01/17 07:39:49;;;;;;;21.88;3.80;;;6.60;99.90;;;;;;5060612;28;20079;-80
2022/01/17 07:42:14;;;;;;;27.15;4.40;;;6.60;99.90;;;;;;5077392;28;20082;-81
2022/01/17 07:44:43;;;;;;;20.00;3.50;;;6.60;99.90;;;;;;5061561;28;20052;-81
2022/01/17 07:47:16;;;;;;;26.73;4.28;;;6.60;99.90;;;;;;5077192;28;20067;-82
2022/01/17 07:49:44;;;;;;;30.85;4.40;;;6.70;99.90;;;;;;5047333;28;20052;-81
2022/01/17 07:52:11;;;;;;;25.38;4.70;;;7.40;99.90;;;;;;5047262;28;20052;-81
2022/01/17 07:54:43;;;;;;;24.80;4.45;;;6.70;99.90;;;;;;5042328;28;20126;-80
2022/01/17 07:57:09;;;;;;;25.27;4.40;;;6.70;99.90;;;;;;5075104;28;20040;-80
2022/01/17 07:59:35;;;;;;;28.23;4.18;;;6.70;99.90;;;;;;5061385;28;20044;-79
2022/01/17 08:02:01;;;;;;;21.38;4.18;;;6.70;99.90;;;;;;5080071;28;20138;-79
2022/01/17 08:04:27;;;;;;;24.05;4.53;;;6.70;99.90;;;;;;5043916;28;20047;-79
2022/01/17 08:06:52;;;;;;;23.25;4.85;;;6.70;99.90;;;;;;5070017;28;20121;-79
2022/01/17 08:09:29;;;;;;;24.48;4.00;;;6.80;99.90;;;;;;5059885;28;20474;-82
2022/01/17 08:11:58;;;;;;;23.83;4.65;;;7.30;99.90;;;;;;5078019;28;20859;-82
2022/01/17 08:14:24;;;;;;;22.83;4.47;;;6.70;99.90;;;;;;5061029;28;20052;-81
2022/01/17 08:16:51;;;;;;;22.20;4.20;;;7.00;99.90;;;;;;5064351;28;20050;-82
2022/01/17 08:19:18;;;;;;;26.77;4.30;;;6.70;99.90;;;;;;5062528;28;20044;-82
2022/01/17 08:21:46;;;;;;;23.25;4.28;;;6.70;99.90;;;;;;5065151;28;20048;-79
2022/01/17 08:24:12;;;;;;;22.48;3.67;;;7.20;99.90;;;;;;5063917;28;20060;-79
2022/01/17 08:26:42;;;;;;;23.77;3.72;;;6.80;99.90;;;;;;5064735;28;20044;-79
2022/01/17 08:29:09;;;;;;;18.95;3.75;;;7.40;99.90;;;;;;5049485;28;20048;-80
2022/01/17 08:31:35;;;;;;;21.27;4.18;;;6.90;99.90;;;;;;5064832;28;20104;-79
2022/01/17 08:34:00;;;;;;;24.13;4.57;;;7.10;99.90;;;;;;5064150;28;20489;-79
2022/01/17 08:36:26;;;;;;;20.92;4.05;;;6.90;99.90;;;;;;5029852;28;20127;-79
2022/01/17 08:38:53;;;;;;;25.40;4.28;;;7.50;99.90;;;;;;5062552;28;20071;-80
2022/01/17 08:41:19;;;;;;;31.05;4.63;;;7.00;99.90;;;;;;5062702;28;20047;-79
2022/01/17 08:43:48;;;;;;;22.85;4.57;;;7.10;99.90;;;;;;5062861;28;20043;-79
2022/01/17 08:46:15;;;;;;;22.40;4.03;;;7.10;99.90;;;;;;5048607;28;20080;-79
2022/01/17 08:48:41;;;;;;;20.52;4.22;;;7.10;99.90;;;;;;5064122;28;20077;-79
2022/01/17 08:51:08;;;;;;;29.98;4.75;;;7.10;99.90;;;;;;5063549;28;20048;-79
2022/01/17 08:53:34;;;;;;;30.33;4.85;;;7.20;99.90;;;;;;5062142;28;20131;-79
2022/01/17 08:56:00;;;;;;;32.70;5.22;;;7.20;99.90;;;;;;5047564;28;20044;-79
2022/01/17 08:58:26;;;;;;;31.35;5.25;;;7.20;99.90;;;;;;5046758;28;20067;-79
2022/01/17 09:00:52;;;;;;;20.73;3.75;;;7.20;99.90;;;;;;5063935;28;20050;-79
2022/01/17 09:03:19;;;;;;;31.00;4.97;;;7.20;99.90;;;;;;5062780;28;20079;-79
2022/01/17 09:05:45;;;;;;;25.58;4.35;;;7.20;99.90;;;;;;5048226;28;20048;-79
2022/01/17 09:08:11;;;;;;;28.05;5.20;;;7.40;99.90;;;;;;5062840;28;20047;-81
2022/01/17 09:10:38;;;;;;;22.58;4.68;;;7.20;99.90;;;;;;5080057;28;20067;-80
2022/01/17 09:13:07;;;;;;;21.15;5.05;;;7.20;99.90;;;;;;5078346;28;20048;-79
2022/01/17 09:15:33;;;;;;;25.20;3.90;;;7.30;99.90;;;;;;5063489;28;20058;-79
2022/01/17 09:17:59;;;;;;;26.92;5.35;;;7.30;99.90;;;;;;5045995;28;20439;-79
2022/01/17 09:20:25;;;;;;;29.58;5.15;;;7.30;99.90;;;;;;5045506;28;20051;-79
2022/01/17 09:22:51;;;;;;;34.00;4.88;;;8.50;99.90;;;;;;5062830;28;20056;-79
2022/01/17 09:25:17;;;;;;;30.02;5.88;;;7.40;99.90;;;;;;5061523;28;20121;-81
2022/01/17 09:27:43;;;;;;;25.33;5.35;;;7.40;99.90;;;;;;5029889;28;20048;-80
2022/01/17 09:30:11;;;;;;;26.63;5.38;;;7.50;99.90;;;;;;5055041;28;20107;-80
2022/01/17 09:32:38;;;;;;;25.67;4.45;;;7.50;99.90;;;;;;5062403;28;20059;-81
2022/01/17 09:35:05;;;;;;;27.02;5.10;;;7.50;99.90;;;;;;5062681;28;20051;-80
2022/01/17 09:37:31;;;;;;;27.27;4.78;;;7.60;99.90;;;;;;5045288;28;20076;-80
2022/01/17 09:39:56;;;;;;;24.13;4.47;;;7.60;99.90;;;;;;5046131;28;20086;-80
2022/01/17 09:42:22;;;;;;;36.47;5.68;;;7.70;99.90;;;;;;5062776;28;20044;-80
2022/01/17 09:44:48;;;;;;;27.25;5.43;;;7.80;99.90;;;;;;5079325;28;20044;-81
2022/01/17 09:47:15;;;;;;;27.98;5.85;;;7.90;99.90;;;;;;5044939;28;20127;-80
2022/01/17 09:49:47;;;;;;;28.15;4.90;;;7.70;99.90;;;;;;5063634;28;20050;-81
2022/01/17 09:52:33;;;;;;;24.17;4.82;;;7.80;99.90;;;;;;5063159;28;20051;-81
2022/01/17 09:55:12;;;;;;;26.33;5.15;;;7.80;99.90;;;;;;5063038;28;20044;-80
2022/01/17 09:57:54;;;;;;;23.80;5.30;;;7.80;99.90;;;;;;5046527;28;20420;-81
2022/01/17 10:00:25;;;;;;;34.00;5.18;;;8.00;99.90;;;;;;5064247;28;20115;-81
2022/01/17 10:02:57;;;;;;;27.15;5.00;;;8.10;99.90;;;;;;5077524;28;20040;-81
2022/01/17 10:05:24;;;;;;;28.45;4.97;;;8.20;99.90;;;;;;5078356;28;20440;-80
2022/01/17 10:08:01;;;;;;;29.73;5.13;;;8.30;99.90;;;;;;5046739;28;20040;-79
2022/01/17 10:10:46;;;;;;;23.30;5.00;;;8.40;99.90;;;;;;5078619;28;20048;-81
2022/01/17 10:13:14;;;;;;;24.70;5.20;;;8.60;99.90;;;;;;5047139;28;20129;-81
2022/01/17 10:16:00;;;;;;;25.35;5.30;;;9.50;99.90;;;;;;5061355;28;20081;-80
2022/01/17 10:18:29;;;;;;;30.48;4.75;;;8.70;99.90;;;;;;5044527;28;20570;-81
2022/01/17 10:21:06;;;;;;;32.50;5.70;;;8.70;99.90;;;;;;5062027;28;20052;-81
2022/01/17 10:24:13;;;;;;;27.27;5.65;;;8.90;99.90;;;;;;5046376;28;20056;-80
2022/01/17 10:37:23;;;;;;;29.00;5.65;;;8.90;99.90;;;;;;5077402;28;20131;-81
2022/01/17 10:40:06;;;;;;;32.03;5.30;;;8.90;99.90;;;;;;5061774;28;20052;-80
2022/01/17 10:42:41;;;;;;;22.98;5.88;;;8.80;99.90;;;;;;5061749;28;20135;-81
2022/01/17 10:45:13;;;;;;;27.20;5.22;;;8.80;99.90;;;;;;5062850;28;20056;-80
2022/01/17 10:47:43;;;;;;;21.98;5.60;;;8.70;99.90;;;;;;5060344;28;20475;-81
2022/01/17 10:50:30;;;;;;;29.60;5.90;;;8.80;99.90;;;;;;5046165;28;20051;-81
2022/01/17 10:52:58;;;;;;;25.30;5.85;;;8.70;99.90;;;;;;5052873;28;20052;-80
2022/01/17 10:55:30;;;;;;;29.83;5.88;;;8.90;99.90;;;;;;5062265;28;20052;-81
2022/01/17 10:58:06;;;;;;;22.90;5.68;;;9.00;99.90;;;;;;5045307;28;20044;-81
2022/01/17 11:00:38;;;;;;;32.47;6.00;;;9.00;99.90;;;;;;5062481;28;20063;-80
2022/01/17 11:03:09;;;;;;;28.90;5.75;;;9.10;99.90;;;;;;5077564;28;20043;-80
2022/01/17 11:05:40;;;;;;;32.17;7.22;;;9.10;99.90;;;;;;5061372;28;20047;-81
2022/01/17 11:08:08;;;;;;;32.50;5.80;;;9.00;99.90;;;;;;5077959;28;20048;-80
2022/01/17 11:10:40;;;;;;;36.17;6.22;;;9.00;99.90;;;;;;5060823;28;20132;-81
2022/01/17 11:13:08;;;;;;;29.75;5.80;;;8.90;99.90;;;;;;5046399;28;20040;-81
2022/01/17 11:15:36;;;;;;;30.65;6.32;;;9.00;99.90;;;;;;5077113;28;20070;-81
2022/01/17 11:18:24;;;;;;;32.75;6.38;;;9.00;99.90;;;;;;5061976;28;20036;-80
2022/01/17 11:20:54;;;;;;;30.40;5.78;;;9.00;99.90;;;;;;5077071;28;20044;-81
2022/01/17 11:23:21;;;;;;;29.38;5.97;;;9.00;99.90;;;;;;5061270;28;20123;-81
2022/01/17 11:25:52;;;;;;;32.63;6.45;;;9.00;99.90;;;;;;5062330;28;20401;-80
2022/01/17 11:28:22;;;;;;;34.80;6.22;;;9.10;99.90;;;;;;5044149;28;20124;-80
2022/01/17 11:30:48;;;;;;;33.25;6.70;;;9.00;99.90;;;;;;5059611;28;20412;-81
2022/01/17 11:33:14;;;;;;;40.95;6.45;;;9.00;99.90;;;;;;5076741;28;20185;-81
2022/01/17 11:35:42;;;;;;;34.55;7.18;;;9.00;99.90;;;;;;5042674;28;20158;-81
2022/01/17 11:38:19;;;;;;;44.28;6.57;;;9.00;99.90;;;;;;5028816;28;20816;-81
2022/01/17 11:40:45;;;;;;;38.55;7.47;;;9.00;99.90;;;;;;5044693;28;20554;-80
2022/01/17 11:43:36;;;;;;;33.42;6.80;;;9.00;99.90;;;;;;5060914;28;20044;-80
2022/01/17 11:46:17;;;;;;;39.55;7.20;;;9.00;99.90;;;;;;5061600;28;20052;-80
2022/01/17 11:48:53;;;;;;;36.00;6.63;;;8.30;99.90;;;;;;5060862;28;20146;-81
2022/01/17 11:51:19;;;;;;;41.90;7.43;;;8.90;99.90;;;;;;5049347;28;20054;-81
2022/01/17 11:53:53;;;;;;;30.92;5.80;;;8.90;99.90;;;;;;5064164;28;20128;-80
2022/01/17 11:56:50;;;;;;;34.53;6.57;;;8.90;99.90;;;;;;5082282;28;20162;-80
2022/01/17 11:59:36;;;;;;;37.90;6.70;;;8.80;99.90;;;;;;5064604;28;20040;-80
2022/01/17 12:02:20;;;;;;;41.17;8.37;;;8.80;99.90;;;;;;5081791;28;20059;-81
2022/01/17 12:05:07;;;;;;;39.55;7.43;;;9.30;99.90;;;;;;5064512;28;20294;-81
2022/01/17 12:07:36;;;;;;;37.33;6.60;;;8.80;99.90;;;;;;5064174;28;20044;-81
2022/01/17 12:10:39;;;;;;;39.80;6.60;;;8.80;99.90;;;;;;5081964;28;20044;-81
2022/01/17 12:13:16;;;;;;;36.28;6.85;;;8.80;99.90;;;;;;5052333;28;20412;-80
2022/01/17 12:16:06;;;;;;;30.48;6.90;;;8.80;99.90;;;;;;5064299;28;20127;-78
2022/01/17 12:18:35;;;;;;;33.83;6.85;;;8.70;99.90;;;;;;5080948;28;20052;-80
2022/01/17 12:21:21;;;;;;;39.45;7.03;;;8.80;99.90;;;;;;5081869;28;20056;-80
2022/01/17 12:23:48;;;;;;;35.13;5.93;;;8.80;99.90;;;;;;5063269;28;20044;-80
2022/01/17 12:26:31;;;;;;;36.50;7.70;;;8.80;99.90;;;;;;5081637;28;20096;-80
2022/01/17 12:28:59;;;;;;;36.72;6.97;;;8.80;99.90;;;;;;5064404;28;20067;-80
2022/01/17 12:31:44;;;;;;;35.05;6.88;;;8.80;99.90;;;;;;5049229;28;20068;-80
2022/01/17 12:34:28;;;;;;;40.67;7.13;;;8.80;99.90;;;;;;5079460;28;20060;-80
2022/01/17 12:36:58;;;;;;;33.30;6.15;;;8.70;99.90;;;;;;5080433;28;20055;-80
2022/01/17 12:39:28;;;;;;;42.95;6.95;;;8.60;99.90;;;;;;5081864;28;20115;-80
2022/01/17 12:42:00;;;;;;;30.77;6.03;;;8.60;99.90;;;;;;5047100;28;20051;-80
2022/01/17 12:44:28;;;;;;;33.28;6.80;;;8.60;99.90;;;;;;5064241;28;20058;-80
2022/01/17 12:46:57;;;;;;;32.40;6.70;;;8.60;99.90;;;;;;5078483;28;20134;-80
2022/01/17 12:49:24;;;;;;;36.45;6.75;;;8.70;99.90;;;;;;5064035;28;20466;-80
2022/01/17 12:51:51;;;;;;;40.80;7.07;;;8.70;99.90;;;;;;5046093;28;20139;-80
2022/01/17 12:54:20;;;;;;;33.75;7.25;;;8.80;99.90;;;;;;5061843;28;20556;-80
2022/01/17 12:56:48;;;;;;;42.42;7.03;;;8.80;99.90;;;;;;5078885;28;20051;-79
2022/01/17 12:59:17;;;;;;;33.25;7.10;;;8.80;99.90;;;;;;5065143;28;20086;-79
2022/01/17 13:01:51;;;;;;;36.47;6.50;;;8.70;99.90;;;;;;5062792;28;20043;-80
2022/01/17 13:04:18;;;;;;;27.35;5.85;;;8.70;99.90;;;;;;5049133;28;20090;-80
2022/01/17 13:06:46;;;;;;;34.30;6.80;;;8.60;99.90;;;;;;5046933;28;20123;-80
2022/01/17 13:09:20;;;;;;;29.40;5.57;;;8.50;99.90;;;;;;5064073;28;20098;-80
2022/01/17 13:11:47;;;;;;;35.00;7.30;;;8.60;99.90;;;;;;5064877;28;20043;-80
2022/01/17 13:14:15;;;;;;;44.40;7.88;;;8.60;99.90;;;;;;5062599;28;20040;-80
2022/01/17 13:16:41;;;;;;;37.75;6.57;;;8.60;99.90;;;;;;5062659;28;20047;-80
2022/01/17 13:19:10;;;;;;;33.25;6.03;;;8.60;99.90;;;;;;5080639;28;20056;-80
2022/01/17 13:21:39;;;;;;;36.55;7.70;;;8.60;99.90;;;;;;5047152;28;20091;-80
2022/01/17 13:25:02;;;;;;;36.00;7.38;;;8.60;99.90;;;;;;5063959;28;20056;-80
2022/01/17 13:27:03;;;;;;;33.90;6.53;;;8.60;99.90;;;;;;5057187;28;20117;-80